Time;durP1;ratioP1;P1;durP2;ratioP2;P2;SDS_P1;SDS_P2;PMS_P1;PMS_P2;Temp;Humidity;BMP_temperature;BMP_pressure;BME280_temperature;BME280_humidity;BME280_pressure;Samples;Min_cycle;Max_cycle;Signal;HPM_P1;HPM_P2
2022/10/04 00:01:43;;;;;;;1.83;1.50;;;;;;;14.47;95.26;100739.88;5010272;28;20045;-71
2022/10/04 00:04:44;;;;;;;3.67;1.70;;;;;;;14.63;95.18;100742.53;5027054;28;20021;-75
2022/10/04 00:07:12;;;;;;;2.08;1.45;;;;;;;14.78;94.11;100736.94;4970306;28;20046;-73
2022/10/04 00:09:53;;;;;;;1.67;1.25;;;;;;;14.90;93.86;100733.00;5010094;28;20025;-72
2022/10/04 00:12:20;;;;;;;1.50;1.20;;;;;;;15.01;93.08;100735.38;5034947;28;20033;-72
2022/10/04 00:14:48;;;;;;;2.75;1.50;;;;;;;15.09;93.05;100736.69;5030463;28;20114;-71
2022/10/04 00:17:21;;;;;;;1.63;1.27;;;;;;;15.17;92.63;100737.97;5031776;28;20025;-70
2022/10/04 00:19:49;;;;;;;3.10;1.50;;;;;;;15.23;92.22;100727.75;5019369;28;20017;-72
2022/10/04 00:22:25;;;;;;;2.10;1.80;;;;;;;15.28;92.15;100711.19;5025295;28;20042;-72
2022/10/04 00:25:06;;;;;;;2.97;1.40;;;;;;;15.30;91.72;100709.78;5005472;28;20025;-71
2022/10/04 00:27:32;;;;;;;1.83;1.10;;;;;;;15.32;91.96;100717.75;5031767;28;20117;-71
2022/10/04 00:30:00;;;;;;;2.28;1.40;;;;;;;15.33;91.84;100711.09;5043404;28;20248;-72
2022/10/04 00:32:59;;;;;;;6.45;1.90;;;;;;;15.34;91.72;100713.56;5018152;28;20120;-71
2022/10/04 00:35:25;;;;;;;1.98;1.50;;;;;;;15.34;91.78;100704.50;5023702;28;20515;-72
2022/10/04 00:37:56;;;;;;;3.05;1.42;;;;;;;15.35;91.29;100695.13;5005947;28;20036;-70
2022/10/04 00:40:27;;;;;;;3.22;1.63;;;;;;;15.34;91.19;100699.78;5018219;28;20132;-72
2022/10/04 00:42:55;;;;;;;3.38;1.40;;;;;;;15.34;90.85;100702.56;5030980;28;20072;-71
2022/10/04 00:45:42;;;;;;;3.55;1.27;;;;;;;15.34;90.84;100705.31;5016121;28;20474;-72
2022/10/04 00:48:30;;;;;;;2.70;1.40;;;;;;;15.31;90.30;100710.59;5019923;28;20467;-72
2022/10/04 00:51:10;;;;;;;3.45;1.50;;;;;;;15.29;90.38;100715.59;4987885;28;20021;-70
2022/10/04 00:53:48;;;;;;;3.20;1.58;;;;;;;15.25;90.05;100700.75;5040834;28;20044;-71
2022/10/04 00:56:22;;;;;;;3.00;1.58;;;;;;;15.20;89.75;100696.09;5031817;28;20022;-71
2022/10/04 00:59:04;;;;;;;2.47;1.10;;;;;;;15.17;89.91;100700.25;5026400;28;20055;-72
2022/10/04 01:01:34;;;;;;;3.75;1.25;;;;;;;15.16;89.39;100693.09;4999756;28;20357;-70
2022/10/04 01:04:02;;;;;;;1.48;1.00;;;;;;;15.12;89.50;100692.03;5018564;28;20025;-70
2022/10/04 01:06:28;;;;;;;3.80;1.10;;;;;;;15.12;89.23;100692.03;5015793;28;20172;-70
2022/10/04 01:08:59;;;;;;;2.08;1.10;;;;;;;15.12;89.10;100692.03;5033013;28;20057;-70
2022/10/04 01:11:34;;;;;;;1.40;1.13;;;;;;;15.12;89.46;100697.53;5000583;28;20120;-71
2022/10/04 01:14:39;;;;;;;1.80;1.00;;;;;;;15.12;89.06;100682.97;5017173;28;20022;-70
2022/10/04 01:17:04;;;;;;;1.30;1.10;;;;;;;15.11;88.92;100682.16;5031213;28;20111;-72
2022/10/04 01:19:31;;;;;;;2.17;0.90;;;;;;;15.09;88.78;100676.09;5038205;28;20037;-72
2022/10/04 01:22:06;;;;;;;1.45;1.00;;;;;;;15.08;88.98;100668.94;5014711;28;20034;-71
2022/10/04 01:24:43;;;;;;;2.55;1.00;;;;;;;15.03;89.00;100659.91;5035519;28;20033;-72
2022/10/04 01:27:35;;;;;;;2.65;1.20;;;;;;;14.94;89.33;100662.47;5015172;28;20053;-71
2022/10/04 01:30:05;;;;;;;2.88;1.10;;;;;;;14.86;89.36;100657.59;4964484;28;20032;-72
2022/10/04 01:32:31;;;;;;;2.03;0.90;;;;;;;14.75;89.78;100638.41;4976651;28;20467;-72
2022/10/04 01:34:57;;;;;;;1.65;1.08;;;;;;;14.58;89.89;100632.47;5040587;28;20033;-71
2022/10/04 01:37:22;;;;;;;6.80;1.10;;;;;;;14.41;90.67;100627.38;4981281;28;20031;-72
2022/10/04 01:39:48;;;;;;;2.10;1.10;;;;;;;14.27;90.87;100621.72;4981298;28;20029;-71
2022/10/04 01:42:31;;;;;;;2.25;1.13;;;;;;;14.14;91.51;100621.22;4945036;28;20521;-72
2022/10/04 01:45:07;;;;;;;1.90;1.08;;;;;;;13.99;92.17;100626.84;4997697;28;20035;-69
2022/10/04 01:47:36;;;;;;;1.83;1.08;;;;;;;13.89;92.60;100627.72;5022256;28;20026;-71
2022/10/04 01:50:08;;;;;;;1.73;1.30;;;;;;;13.79;93.07;100628.56;5043391;28;20036;-72
2022/10/04 01:52:40;;;;;;;1.65;0.80;;;;;;;13.76;92.93;100629.16;5034575;28;20060;-71
2022/10/04 01:55:31;;;;;;;4.90;1.00;;;;;;;13.71;93.03;100620.94;5039743;28;20147;-70
2022/10/04 01:58:06;;;;;;;2.63;1.00;;;;;;;13.65;93.69;100605.56;5033558;28;20052;-71
2022/10/04 02:00:32;;;;;;;2.00;1.30;;;;;;;13.63;93.55;100596.78;5012499;28;20117;-70
2022/10/04 02:03:08;;;;;;;4.65;1.05;;;;;;;13.75;93.27;100605.50;5005726;28;20049;-72
2022/10/04 02:05:46;;;;;;;1.65;1.20;;;;;;;13.92;92.43;100607.09;5027767;28;20026;-71
2022/10/04 02:08:15;;;;;;;2.05;0.93;;;;;;;14.02;90.95;100607.03;5008464;28;20158;-73
2022/10/04 02:10:43;;;;;;;3.20;1.25;;;;;;;14.12;90.21;100617.94;5019881;28;20027;-72
2022/10/04 02:13:13;;;;;;;2.22;1.30;;;;;;;14.20;89.42;100618.47;4999058;28;20027;-72
2022/10/04 02:15:39;;;;;;;1.83;1.08;;;;;;;14.23;89.00;100612.38;5000549;28;20129;-72
2022/10/04 02:18:25;;;;;;;1.48;0.98;;;;;;;14.25;88.59;100612.91;4998815;28;20049;-72
2022/10/04 02:20:53;;;;;;;1.17;0.82;;;;;;;14.28;88.35;100609.56;5026240;28;20037;-71
2022/10/04 02:23:21;;;;;;;2.85;1.00;;;;;;;14.28;87.72;100609.56;5035513;28;20121;-71
2022/10/04 02:25:47;;;;;;;1.98;1.13;;;;;;;14.28;88.41;100595.81;5007513;28;20114;-72
2022/10/04 02:28:14;;;;;;;5.97;1.20;;;;;;;14.29;87.62;100590.06;4986960;28;20077;-71
2022/10/04 02:32:56;;;;;;;2.42;1.02;;;;;;;14.29;87.34;100583.72;4996731;28;20036;-71
2022/10/04 02:33:37;;;;;;;2.33;1.05;;;;;;;14.30;87.07;100585.38;4995814;28;20030;-70
2022/10/04 02:36:08;;;;;;;1.48;1.05;;;;;;;14.31;86.80;100589.78;5017448;28;20083;-69
2022/10/04 02:38:36;;;;;;;2.50;1.10;;;;;;;14.30;86.97;100590.88;4990080;28;20485;-70
2022/10/04 02:41:20;;;;;;;2.35;1.20;;;;;;;14.27;87.19;100577.69;5012415;28;20022;-70
2022/10/04 02:43:54;;;;;;;1.08;0.90;;;;;;;14.27;87.04;100583.19;4992421;28;20082;-70
2022/10/04 02:46:28;;;;;;;1.35;1.15;;;;;;;14.26;86.88;100571.34;5020099;28;20085;-71
2022/10/04 02:49:27;;;;;;;2.10;0.85;;;;;;;14.26;87.04;100576.06;5037042;28;20041;-72
2022/10/04 02:52:06;;;;;;;3.13;1.55;;;;;;;14.24;86.66;100567.28;5008666;28;20066;-70
2022/10/04 02:54:44;;;;;;;3.58;1.60;;;;;;;14.26;86.45;100573.31;5018944;28;21143;-72
2022/10/04 02:57:16;;;;;;;3.80;1.17;;;;;;;14.26;86.18;100562.31;4989269;28;20040;-72
2022/10/04 02:59:41;;;;;;;3.03;1.00;;;;;;;14.28;85.68;100565.56;5030132;28;20021;-72
2022/10/04 03:02:23;;;;;;;1.67;1.15;;;;;;;14.28;85.77;100554.56;5027972;28;20051;-71
2022/10/04 03:04:50;;;;;;;3.15;1.10;;;;;;;14.29;85.42;100550.72;5039344;28;20067;-71
2022/10/04 03:07:16;;;;;;;2.15;1.25;;;;;;;14.29;85.38;100553.47;5012844;28;20022;-71
2022/10/04 03:09:41;;;;;;;3.83;1.42;;;;;;;14.31;84.91;100552.06;5014481;28;20040;-71
2022/10/04 03:12:11;;;;;;;2.78;1.27;;;;;;;14.30;84.63;100549.63;5019533;28;20037;-71
2022/10/04 03:14:38;;;;;;;2.95;1.17;;;;;;;14.31;84.69;100557.56;5014878;28;20073;-71
2022/10/04 03:17:04;;;;;;;3.20;1.42;;;;;;;14.33;84.46;100554.53;5028631;28;20033;-71
2022/10/04 03:19:32;;;;;;;2.95;1.45;;;;;;;14.32;84.23;100547.38;5007839;28;20120;-71
2022/10/04 03:22:08;;;;;;;2.10;1.20;;;;;;;14.32;84.36;100541.88;4994090;28;20032;-71
2022/10/04 03:24:45;;;;;;;5.15;1.38;;;;;;;14.33;84.23;100543.53;5000554;28;20074;-71
2022/10/04 03:27:32;;;;;;;3.28;1.30;;;;;;;14.31;84.40;100551.28;5050933;28;20029;-71
2022/10/04 03:29:58;;;;;;;2.42;1.20;;;;;;;14.33;84.25;100549.03;5037481;28;20041;-71
2022/10/04 03:32:25;;;;;;;1.75;1.00;;;;;;;14.29;84.02;100547.97;5013753;28;20036;-70
2022/10/04 03:35:03;;;;;;;1.65;1.13;;;;;;;14.27;84.03;100539.19;5012338;28;20068;-70
2022/10/04 03:37:33;;;;;;;2.95;1.10;;;;;;;14.26;84.13;100548.53;4987340;28;20116;-71
2022/10/04 03:40:00;;;;;;;2.28;1.00;;;;;;;14.20;84.41;100539.50;5029092;28;20504;-71
2022/10/04 03:42:33;;;;;;;1.75;0.90;;;;;;;14.21;84.37;100534.84;5006730;28;20127;-70
2022/10/04 03:45:07;;;;;;;1.23;0.90;;;;;;;14.21;84.93;100540.34;5028475;28;20018;-70
2022/10/04 03:47:39;;;;;;;0.82;0.70;;;;;;;14.20;84.59;100541.44;4989087;28;20025;-71
2022/10/04 03:50:28;;;;;;;3.10;1.10;;;;;;;14.18;84.75;100540.91;5008912;28;20495;-72
2022/10/04 03:53:03;;;;;;;1.25;0.82;;;;;;;14.19;85.07;100543.34;4960510;28;20031;-71
2022/10/04 03:55:37;;;;;;;2.47;0.77;;;;;;;14.18;85.23;100546.41;5028658;28;20029;-71
2022/10/04 03:58:04;;;;;;;;;;;;;;;14.19;84.68;100537.06;5031087;28;20046;-72
2022/10/04 04:00:30;;;;;;;1.58;0.77;;;;;;;14.18;85.09;100540.91;5028467;28;19952;-70
2022/10/04 04:03:07;;;;;;;1.92;0.60;;;;;;;14.16;84.97;100526.63;5016559;28;20037;-71
2022/10/04 04:05:50;;;;;;;2.25;0.68;;;;;;;14.16;84.97;100543.94;5033461;28;20037;-71
2022/10/04 04:08:39;;;;;;;1.90;0.60;;;;;;;14.16;84.88;100540.38;5023115;28;20041;-70
2022/10/04 04:11:11;;;;;;;1.58;0.60;;;;;;;14.17;84.88;100545.59;5027886;28;20033;-71
2022/10/04 04:13:53;;;;;;;1.20;0.77;;;;;;;14.16;84.72;100540.38;5029529;28;20180;-71
2022/10/04 04:16:24;;;;;;;1.95;0.60;;;;;;;14.16;84.56;100546.69;5028192;28;20025;-72
2022/10/04 04:18:52;;;;;;;0.75;0.60;;;;;;;14.13;84.66;100537.09;5030049;28;20037;-71
2022/10/04 04:21:23;;;;;;;0.45;0.40;;;;;;;14.15;84.88;100553.31;5020590;28;20112;-71
2022/10/04 04:24:01;;;;;;;4.45;0.95;;;;;;;14.13;85.03;100550.84;5037080;28;20444;-70
2022/10/04 04:26:39;;;;;;;5.45;0.73;;;;;;;14.13;85.52;100548.09;5029374;28;20035;-71
2022/10/04 04:29:23;;;;;;;0.68;0.50;;;;;;;14.11;85.09;100549.50;5039606;28;20022;-72
2022/10/04 04:32:00;;;;;;;1.05;0.32;;;;;;;14.12;85.29;100543.72;5039866;28;20548;-70
2022/10/04 04:34:31;;;;;;;1.88;0.60;;;;;;;14.14;84.92;100541.47;5038551;28;20029;-72
2022/10/04 04:37:03;;;;;;;2.05;0.50;;;;;;;14.12;85.19;100537.41;5014817;28;20028;-72
2022/10/04 04:39:33;;;;;;;1.23;0.55;;;;;;;14.10;84.90;100540.41;5001891;28;20033;-71
2022/10/04 04:42:17;;;;;;;0.95;0.40;;;;;;;14.12;85.38;100551.16;5012440;28;20029;-72
2022/10/04 04:44:59;;;;;;;2.60;0.50;;;;;;;14.12;85.40;100540.97;5029052;28;20480;-71
2022/10/04 04:47:41;;;;;;;0.55;0.55;;;;;;;14.08;85.26;100537.13;5028354;28;20064;-72
2022/10/04 04:50:22;;;;;;;3.65;0.60;;;;;;;14.11;85.35;100542.06;5026618;28;20026;-72
2022/10/04 04:53:13;;;;;;;1.60;0.57;;;;;;;14.10;85.37;100534.91;5017657;28;20017;-71
2022/10/04 04:55:43;;;;;;;2.70;1.20;;;;;;;14.08;85.11;100537.13;5021696;28;20052;-73
2022/10/04 04:58:20;;;;;;;1.98;0.60;;;;;;;14.02;85.50;100527.28;5040987;28;20053;-74
2022/10/04 05:00:53;;;;;;;1.17;0.47;;;;;;;14.05;85.35;100529.47;5037638;28;20025;-71
2022/10/04 05:03:20;;;;;;;0.73;0.60;;;;;;;14.08;85.91;100534.38;5032360;28;20023;-71
2022/10/04 05:05:46;;;;;;;2.22;0.65;;;;;;;14.10;84.79;100534.91;5028005;28;20026;-71
2022/10/04 05:08:15;;;;;;;1.80;0.50;;;;;;;14.11;85.06;100531.06;5010779;28;20038;-71
2022/10/04 05:11:08;;;;;;;1.20;0.40;;;;;;;14.12;85.23;100537.41;5004311;28;20037;-72
2022/10/04 05:14:10;;;;;;;1.63;0.50;;;;;;;14.08;84.93;100531.63;5049024;28;20121;-71
2022/10/04 05:16:44;;;;;;;1.65;0.57;;;;;;;14.06;85.54;100531.09;5006688;28;20083;-71
2022/10/04 05:19:31;;;;;;;0.80;0.53;;;;;;;14.10;85.32;100534.91;5038362;28;20430;-71
2022/10/04 05:22:06;;;;;;;1.50;0.55;;;;;;;14.09;85.34;100538.78;5025628;28;20036;-71
2022/10/04 05:24:39;;;;;;;2.00;0.50;;;;;;;14.11;85.05;100538.50;5023176;28;20025;-72
2022/10/04 05:27:12;;;;;;;0.63;0.50;;;;;;;14.09;85.09;100538.78;5042158;28;20045;-72
2022/10/04 05:29:46;;;;;;;1.65;0.25;;;;;;;14.08;85.14;100526.13;5033248;28;20049;-72
2022/10/04 05:32:26;;;;;;;2.00;0.47;;;;;;;14.08;85.51;100523.38;5034215;28;20499;-72
2022/10/04 05:34:53;;;;;;;1.08;0.40;;;;;;;14.08;85.33;100530.81;5034593;28;20033;-71
2022/10/04 05:37:19;;;;;;;2.00;0.63;;;;;;;14.01;85.45;100525.63;5018983;28;20042;-71
2022/10/04 05:40:04;;;;;;;0.55;0.32;;;;;;;13.93;86.04;100523.50;5010895;28;20472;-71
2022/10/04 05:42:38;;;;;;;1.05;0.52;;;;;;;13.93;85.78;100526.25;5034623;28;20031;-71
2022/10/04 05:45:24;;;;;;;0.82;0.40;;;;;;;13.95;85.84;100529.53;5010734;28;20025;-71
2022/10/04 05:47:52;;;;;;;1.30;0.70;;;;;;;13.94;85.90;100516.88;5043837;28;20098;-71
2022/10/04 05:50:40;;;;;;;2.78;0.75;;;;;;;13.90;85.68;100532.31;5005897;28;20022;-70
2022/10/04 05:53:32;;;;;;;2.28;0.57;;;;;;;13.75;86.98;100523.06;5022855;28;20483;-71
2022/10/04 05:56:16;;;;;;;1.52;0.50;;;;;;;13.63;87.60;100516.28;5021725;28;20027;-70
2022/10/04 05:59:05;;;;;;;4.88;0.70;;;;;;;13.60;87.79;100528.66;5022263;28;20048;-68
2022/10/04 06:01:47;;;;;;;0.40;0.35;;;;;;;13.64;86.79;100521.50;5026966;28;20037;-69
2022/10/04 06:04:28;;;;;;;1.40;0.50;;;;;;;13.74;85.99;100526.94;5011454;28;20022;-69
2022/10/04 06:07:17;;;;;;;1.92;0.43;;;;;;;13.78;85.50;100528.00;5017187;28;20080;-69
2022/10/04 06:09:53;;;;;;;2.13;0.60;;;;;;;13.84;84.61;100530.72;5007984;28;20124;-68
2022/10/04 06:12:45;;;;;;;0.22;0.22;;;;;;;13.88;84.07;100523.53;5031913;28;20032;-68
2022/10/04 06:15:35;;;;;;;1.33;0.40;;;;;;;13.90;83.86;100526.81;5036589;28;20033;-70
2022/10/04 06:18:41;;;;;;;1.15;0.52;;;;;;;13.93;83.48;100512.50;5026020;28;20032;-71
2022/10/04 06:21:23;;;;;;;1.98;0.55;;;;;;;13.92;83.12;100505.38;5019739;28;20534;-69
2022/10/04 06:23:52;;;;;;;2.33;0.40;;;;;;;13.97;83.14;100513.56;5023791;28;20036;-71
2022/10/04 06:26:23;;;;;;;0.70;0.30;;;;;;;14.00;82.52;100502.00;5019517;28;20057;-72
2022/10/04 06:28:56;;;;;;;1.83;0.40;;;;;;;14.03;82.62;100503.34;5035908;28;20021;-73
2022/10/04 06:31:28;;;;;;;2.53;0.40;;;;;;;14.05;82.69;100506.66;5037717;28;20029;-70
2022/10/04 06:34:19;;;;;;;3.90;0.63;;;;;;;14.06;82.06;100513.78;5022792;28;20026;-69
2022/10/04 06:36:51;;;;;;;1.45;0.30;;;;;;;14.08;81.78;100509.63;5011218;28;20029;-70
2022/10/04 06:39:36;;;;;;;1.20;0.30;;;;;;;14.09;81.97;100505.78;5024738;28;20044;-68
2022/10/04 06:42:08;;;;;;;1.80;0.52;;;;;;;14.11;82.08;100508.25;5012284;28;20028;-72
2022/10/04 06:44:40;;;;;;;0.50;0.38;;;;;;;14.08;81.55;100493.13;5021733;28;20051;-71
2022/10/04 06:47:20;;;;;;;0.35;0.35;;;;;;;14.08;81.66;100506.88;5018074;28;20018;-75
2022/10/04 06:49:52;;;;;;;1.02;0.30;;;;;;;14.05;81.92;100510.22;5035385;28;20444;-69
2022/10/04 06:52:41;;;;;;;1.83;0.47;;;;;;;14.04;81.88;100519.56;5016372;28;20050;-72
2022/10/04 06:55:45;;;;;;;2.47;0.65;;;;;;;14.03;82.02;100517.09;5020982;28;20117;-74
2022/10/04 06:58:38;;;;;;;0.90;0.30;;;;;;;14.06;81.70;100506.38;5007643;28;20064;-73
2022/10/04 07:01:10;;;;;;;0.30;0.30;;;;;;;14.12;81.71;100505.22;5014142;28;20480;-73
2022/10/04 07:03:46;;;;;;;2.22;0.60;;;;;;;14.23;81.03;100518.88;5028399;28;20033;-72
2022/10/04 07:06:12;;;;;;;2.50;0.40;;;;;;;14.29;81.41;100524.06;5019296;28;20017;-72
2022/10/04 07:08:50;;;;;;;0.70;0.40;;;;;;;14.36;80.82;100520.94;4987436;28;20052;-72
2022/10/04 07:11:43;;;;;;;2.08;0.60;;;;;;;14.37;80.30;100522.59;5023432;28;20109;-72
2022/10/04 07:14:18;;;;;;;1.50;0.47;;;;;;;14.44;80.37;100528.59;5027440;28;20041;-74
2022/10/04 07:16:49;;;;;;;1.33;0.40;;;;;;;14.49;79.89;100513.97;5005670;28;20452;-71
2022/10/04 07:19:18;;;;;;;3.80;0.50;;;;;;;14.60;79.66;100514.66;5019752;28;20045;-72
2022/10/04 07:22:06;;;;;;;2.38;0.30;;;;;;;14.78;79.03;100515.91;5030577;28;20045;-72
2022/10/04 07:24:41;;;;;;;1.83;0.70;;;;;;;15.00;78.61;100501.59;5013209;28;20045;-71
2022/10/04 07:27:14;;;;;;;;;;;;;;;15.21;77.61;100504.09;5037419;28;20049;-72
2022/10/04 07:29:44;;;;;;;1.80;0.45;;;;;;;15.39;76.97;100497.81;5012644;28;19913;-71
2022/10/04 07:32:23;;;;;;;0.88;0.43;;;;;;;15.73;75.28;100510.53;5028210;28;20028;-71
2022/10/04 07:35:07;;;;;;;0.60;0.30;;;;;;;16.51;73.40;100505.41;5014476;28;20034;-72
2022/10/04 07:37:44;;;;;;;0.40;0.30;;;;;;;17.82;68.30;100503.28;5011332;28;20038;-71
2022/10/04 07:46:56;;;;;;;0.88;0.40;;;;;;;20.60;58.60;100495.19;5036348;28;20029;-72
2022/10/04 07:49:49;;;;;;;1.23;0.35;;;;;;;21.47;54.51;100498.72;5016278;28;20026;-71
2022/10/04 07:52:56;;;;;;;2.15;0.60;;;;;;;20.59;55.54;100482.47;5020367;28;20094;-72
2022/10/04 07:55:55;;;;;;;4.63;0.60;;;;;;;18.79;60.57;100497.22;5030193;28;20591;-72
2022/10/04 07:58:52;;;;;;;1.60;0.47;;;;;;;17.76;65.21;100524.69;5013760;28;20057;-71
2022/10/04 08:02:06;;;;;;;;;;;;;;;;;;;;;
2022/10/04 08:05:18;;;;;;;8.43;0.63;;;;;;;16.98;70.09;100519.22;5032564;28;20133;-71
2022/10/04 08:08:39;;;;;;;0.57;0.30;;;;;;;19.09;62.87;100510.56;5032768;28;20140;-70
2022/10/04 08:11:51;;;;;;;6.20;0.50;;;;;;;18.36;64.04;100494.25;5015631;28;20229;-72
2022/10/04 08:14:29;;;;;;;1.10;0.38;;;;;;;17.78;66.29;100502.25;5019987;28;20052;-71
2022/10/04 08:17:28;;;;;;;;;;;;;;;;;;;;;
2022/10/04 08:20:18;;;;;;;6.13;0.63;;;;;;;17.95;65.80;100496.91;5035539;28;20538;-72
2022/10/04 08:22:56;;;;;;;0.20;0.20;;;;;;;18.81;64.14;100517.09;5018082;28;20053;-71
2022/10/04 08:25:47;;;;;;;3.95;0.63;;;;;;;18.35;64.18;100503.66;5034705;28;20029;-71
2022/10/04 08:31:58;;;;;;;2.03;0.30;;;;;;;16.83;69.23;100508.41;5040700;28;20052;-71
2022/10/04 08:35:04;;;;;;;3.80;0.50;;;;;;;16.41;72.27;100527.66;5031575;28;20025;-72
2022/10/04 08:38:00;;;;;;;1.65;0.40;;;;;;;16.26;72.89;100503.13;5024364;28;20057;-71
2022/10/04 08:41:21;;;;;;;2.05;0.40;;;;;;;16.32;72.63;100507.41;5017664;28;20037;-70
2022/10/04 08:44:19;;;;;;;5.30;0.40;;;;;;;16.40;72.60;100509.50;5021046;28;20136;-72
2022/10/04 08:47:24;;;;;;;;;;;;;;;;;;;;;
2022/10/04 08:50:24;;;;;;;4.38;0.45;;;;;;;18.48;67.17;100497.22;5038328;28;20173;-72
2022/10/04 08:53:19;;;;;;;5.38;0.35;;;;;;;20.14;60.01;100505.13;5005998;28;20123;-72
2022/10/04 08:55:54;;;;;;;2.17;0.28;;;;;;;19.57;61.16;100506.91;5006845;28;20102;-71
2022/10/04 08:58:47;;;;;;;8.57;0.80;;;;;;;18.39;64.48;100504.69;5006325;28;20081;-71
2022/10/04 09:01:53;;;;;;;3.40;0.35;;;;;;;18.17;66.46;100522.13;4937515;28;20020;-72
2022/10/04 09:04:47;;;;;;;;;;;;;;;;;;;;;
2022/10/04 09:07:51;;;;;;;2.55;0.50;;;;;;;18.20;66.93;100525.06;5034778;28;20111;-72
2022/10/04 09:10:45;;;;;;;;;;;;;;;;;;;;;
2022/10/04 09:13:31;;;;;;;3.28;0.40;;;;;;;18.07;67.55;100509.34;5033571;28;20451;-73
2022/10/04 09:16:48;;;;;;;2.70;0.65;;;;;;;17.78;68.94;100502.25;5021564;28;20030;-71
2022/10/04 09:19:55;;;;;;;1.90;0.40;;;;;;;17.42;72.30;100511.34;5037687;28;20101;-72
2022/10/04 09:23:09;;;;;;;1.65;0.70;;;;;;;18.35;70.54;100517.50;5026655;28;20488;-71
2022/10/04 09:25:52;;;;;;;3.55;0.60;;;;;;;19.02;66.58;100511.81;4990601;28;20473;-72
2022/10/04 09:28:30;;;;;;;1.90;0.68;;;;;;;19.26;64.93;100505.06;5017422;28;20029;-72
2022/10/04 09:30:58;;;;;;;3.20;0.85;;;;;;;19.17;65.35;100506.97;5039023;28;20022;-72
2022/10/04 09:33:56;;;;;;;3.80;1.00;;;;;;;18.82;66.02;100506.81;5029735;28;20036;-72
2022/10/04 09:36:39;;;;;;;3.28;0.60;;;;;;;18.23;68.12;100513.38;5037516;28;20029;-73
2022/10/04 09:39:38;;;;;;;2.28;0.70;;;;;;;17.90;69.74;100516.41;5022673;28;20095;-72
2022/10/04 09:42:28;;;;;;;3.83;0.80;;;;;;;17.90;70.26;100510.88;5020300;28;20183;-72
2022/10/04 09:45:23;;;;;;;2.47;0.60;;;;;;;17.56;71.69;100503.84;5018562;28;20435;-72
2022/10/04 09:48:10;;;;;;;1.27;0.50;;;;;;;16.85;75.63;100509.75;5019096;28;20028;-72
2022/10/04 09:50:53;;;;;;;1.50;0.40;;;;;;;16.45;78.98;100508.56;5020141;28;20060;-73
2022/10/04 09:53:36;;;;;;;1.45;0.43;;;;;;;16.51;80.94;100512.88;5034975;28;20489;-72
2022/10/04 09:56:08;;;;;;;2.38;0.73;;;;;;;16.81;80.72;100518.97;5031042;28;20446;-71
2022/10/04 09:58:52;;;;;;;1.38;0.50;;;;;;;16.84;80.87;100513.63;5031353;28;20076;-72
2022/10/04 10:01:33;;;;;;;3.75;0.70;;;;;;;16.79;80.85;100516.47;5049404;28;20029;-71
2022/10/04 10:06:54;;;;;;;3.42;0.73;;;;;;;17.01;81.65;100528.81;4998145;28;20553;-72
2022/10/04 10:16:21;;;;;;;3.22;0.57;;;;;;;16.62;81.91;100535.56;5037251;28;20060;-71
2022/10/04 10:19:17;;;;;;;0.70;0.50;;;;;;;16.13;83.90;100512.97;4995547;28;20424;-73
2022/10/04 10:22:01;;;;;;;1.25;0.50;;;;;;;15.95;87.06;100520.19;5003062;28;20034;-72
2022/10/04 10:24:51;;;;;;;1.10;0.30;;;;;;;15.95;88.70;100522.94;5004237;28;20103;-72
2022/10/04 10:27:41;;;;;;;0.90;0.40;;;;;;;15.95;89.42;100518.22;5043418;28;20490;-73
2022/10/04 10:30:52;;;;;;;;;;;;;;;;;;;;;
2022/10/04 10:33:50;;;;;;;0.43;0.30;;;;;;;15.50;91.35;100515.81;5001661;28;20121;-73
2022/10/04 10:37:08;;;;;;;0.50;0.20;;;;;;;15.48;93.84;100511.72;5053432;28;20029;-73
2022/10/04 10:40:03;;;;;;;0.32;0.20;;;;;;;15.34;94.82;100511.63;5001014;28;20024;-73
2022/10/04 10:42:59;;;;;;;;;;;;;;;;;;;;;
2022/10/04 10:45:25;;;;;;;;;;;;;;;15.25;96.32;100513.41;5040401;28;19978;-72
2022/10/04 10:48:21;;;;;;;0.10;0.10;;;;;;;15.13;97.11;100495.38;5037331;28;19929;-71
2022/10/04 10:51:19;;;;;;;;;;;;;;;;;;;;;
2022/10/04 10:54:06;;;;;;;0.65;0.20;;;;;;;15.29;98.29;100511.72;5033062;28;20351;-73
2022/10/04 10:56:48;;;;;;;0.22;0.20;;;;;;;15.28;98.47;100507.31;5016960;28;20033;-72
2022/10/04 10:59:47;;;;;;;0.30;0.30;;;;;;;15.34;99.44;100493.16;5017706;28;20056;-72
2022/10/04 11:02:21;;;;;;;1.58;0.80;;;;;;;15.54;99.82;100489.31;5032033;28;20021;-72
2022/10/04 11:05:26;;;;;;;0.82;0.50;;;;;;;15.47;97.71;100480.59;5018857;28;20013;-73
2022/10/04 11:08:23;;;;;;;;;;;;;;;;;;;;;
2022/10/04 11:11:21;;;;;;;0.52;0.30;;;;;;;16.40;94.91;100495.69;5024345;28;20100;-73
2022/10/04 11:14:20;;;;;;;;;;;;;;;;;;;;;
2022/10/04 11:17:14;;;;;;;;;;;;;;;;;;;;;
2022/10/04 11:20:14;;;;;;;0.20;0.20;;;;;;;20.44;73.20;100485.78;5038724;28;20092;-73
2022/10/04 11:23:22;;;;;;;1.33;0.60;;;;;;;19.57;75.29;100492.22;5035003;28;20033;-72
2022/10/04 11:26:10;;;;;;;;;;;;;;;;;;;;;
2022/10/04 11:29:07;;;;;;;0.95;0.20;;;;;;;17.54;81.63;100503.38;4952340;28;20108;-73
2022/10/04 11:32:00;;;;;;;0.32;0.32;;;;;;;16.88;86.31;100509.16;5032278;28;20086;-72
2022/10/04 11:34:50;;;;;;;0.90;0.40;;;;;;;16.57;86.45;100509.72;5031980;28;20031;-71
2022/10/04 11:37:40;;;;;;;2.10;0.50;;;;;;;16.49;87.99;100517.91;5025424;28;20032;-73
2022/10/04 11:40:28;;;;;;;2.28;0.40;;;;;;;16.44;87.78;100501.41;5017800;28;20097;-73
2022/10/04 11:43:08;;;;;;;1.42;0.40;;;;;;;16.31;89.47;100492.81;5017437;28;20029;-72
2022/10/04 11:46:04;;;;;;;2.30;0.30;;;;;;;16.26;88.24;100498.41;5037953;28;20021;-73
2022/10/04 11:48:48;;;;;;;;;;;;;;;;;;;;;
2022/10/04 11:51:17;;;;;;;;;;;;;;;16.10;86.83;100499.78;4991988;28;20129;-74
2022/10/04 11:53:44;;;;;;;0.30;0.30;;;;;;;15.75;87.61;100494.50;5033493;28;20426;-72
2022/10/04 11:57:13;;;;;;;;;;;;;;;;;;;;;
2022/10/04 11:59:43;;;;;;;3.53;0.65;;;;;;;15.50;92.14;100471.72;4994808;28;20050;-72
2022/10/04 12:02:19;;;;;;;0.30;0.30;;;;;;;15.68;91.67;100469.25;5025345;28;20032;-73
2022/10/04 12:04:57;;;;;;;0.65;0.40;;;;;;;15.96;91.32;100474.91;5016248;28;20033;-72
2022/10/04 12:07:22;;;;;;;1.88;0.40;;;;;;;16.06;90.05;100471.97;5049607;28;20033;-72
2022/10/04 12:10:18;;;;;;;1.50;0.52;;;;;;;16.03;88.98;100464.31;5016172;28;20074;-73
2022/10/04 12:13:05;;;;;;;4.05;0.52;;;;;;;16.18;87.74;100468.78;5021461;28;20093;-73
2022/10/04 12:15:58;;;;;;;1.75;0.68;;;;;;;16.39;86.68;100469.22;5022366;28;20111;-73
2022/10/04 12:18:45;;;;;;;6.55;0.88;;;;;;;16.57;85.66;100481.28;5040654;28;20025;-72
2022/10/04 12:21:49;;;;;;;;;;;;;;;;;;;;;
2022/10/04 12:24:46;;;;;;;2.13;0.50;;;;;;;16.41;85.81;100478.00;5037273;28;20093;-73
2022/10/04 12:27:52;;;;;;;2.55;0.68;;;;;;;16.27;85.19;100477.97;5022198;28;20029;-73
2022/10/04 12:31:01;;;;;;;3.53;0.77;;;;;;;16.16;85.49;100466.28;5020219;28;20024;-72
2022/10/04 12:33:44;;;;;;;4.85;0.77;;;;;;;16.27;85.71;100466.94;4999303;28;20056;-73
2022/10/04 12:36:30;;;;;;;4.53;0.90;;;;;;;16.38;84.49;100464.81;5039070;28;20399;-72
2022/10/04 12:39:27;;;;;;;6.70;1.27;;;;;;;16.51;83.22;100461.25;5028988;28;20029;-72
2022/10/04 12:42:11;;;;;;;1.45;0.73;;;;;;;16.71;83.01;100453.69;5036463;28;20025;-72
2022/10/04 12:45:25;;;;;;;1.92;0.60;;;;;;;17.47;80.84;100431.09;5021051;28;20040;-73
2022/10/04 12:48:21;;;;;;;3.28;1.08;;;;;;;18.71;75.75;100433.47;5019644;28;20038;-73
2022/10/04 12:51:23;;;;;;;2.17;0.40;;;;;;;18.64;73.48;100412.59;5031954;28;20033;-72
2022/10/04 12:54:14;;;;;;;1.55;0.70;;;;;;;18.33;75.03;100418.19;5020102;28;20017;-71
2022/10/04 12:57:15;;;;;;;;;;;;;;;;;;;;;
2022/10/04 12:59:58;;;;;;;4.65;0.68;;;;;;;18.07;75.67;100427.16;5011911;28;20121;-73
2022/10/04 13:02:57;;;;;;;4.85;0.88;;;;;;;17.96;75.62;100437.69;5031014;28;20040;-73
2022/10/04 13:05:52;;;;;;;4.97;1.10;;;;;;;17.74;75.86;100440.41;5032664;28;20018;-73
2022/10/04 13:08:36;;;;;;;4.43;0.93;;;;;;;17.62;75.44;100430.75;4981373;28;20069;-73
2022/10/04 13:11:20;;;;;;;3.33;1.02;;;;;;;17.49;75.48;100423.28;4999102;28;20456;-73
2022/10/04 13:14:25;;;;;;;;;;;;;;;;;;;;;
2022/10/04 13:17:13;;;;;;;;;;;;;;;17.87;75.61;100425.72;5023111;28;20089;-72
2022/10/04 13:20:12;;;;;;;2.10;1.00;;;;;;;17.79;75.06;100432.81;4998595;28;19913;-73
2022/10/04 13:23:19;;;;;;;4.00;1.20;;;;;;;17.64;75.27;100430.44;5020253;28;20042;-74